sensor_id;sensor_type;location;lat;lon;timestamp;pressure;altitude;pressure_sealevel;temperature;humidity
40372;BME280;28564;53.346;-6.554;2023-04-06T00:00:07;100619.27;;;12.45;49.94
40372;BME280;28564;53.346;-6.554;2023-04-06T00:02:35;100623.29;;;12.13;50.12
40372;BME280;28564;53.346;-6.554;2023-04-06T00:05:02;100617.63;;;12.11;50.36
40372;BME280;28564;53.346;-6.554;2023-04-06T00:07:29;100611.12;;;12.11;50.61
40372;BME280;28564;53.346;-6.554;2023-04-06T00:09:56;100605.74;;;12.12;50.87
40372;BME280;28564;53.346;-6.554;2023-04-06T00:12:24;100593.63;;;12.13;51.01
40372;BME280;28564;53.346;-6.554;2023-04-06T00:14:51;100591.98;;;12.13;50.96
40372;BME280;28564;53.346;-6.554;2023-04-06T00:17:18;100594.34;;;12.14;51.11
40372;BME280;28564;53.346;-6.554;2023-04-06T00:19:45;100601.67;;;12.14;51.22
40372;BME280;28564;53.346;-6.554;2023-04-06T00:22:12;100607.83;;;12.64;51.23
40372;BME280;28564;53.346;-6.554;2023-04-06T00:24:40;100614.65;;;12.12;51.18
40372;BME280;28564;53.346;-6.554;2023-04-06T00:27:07;100616.18;;;12.07;50.66
40372;BME280;28564;53.346;-6.554;2023-04-06T00:29:34;100614.36;;;12.45;50.53
40372;BME280;28564;53.346;-6.554;2023-04-06T00:32:01;100610.62;;;11.85;50.67
40372;BME280;28564;53.346;-6.554;2023-04-06T00:34:28;100606.19;;;12.04;50.79
40372;BME280;28564;53.346;-6.554;2023-04-06T00:36:56;100603.68;;;12.22;50.78
40372;BME280;28564;53.346;-6.554;2023-04-06T00:39:24;100599.03;;;11.67;50.85
40372;BME280;28564;53.346;-6.554;2023-04-06T00:41:52;100602.81;;;12.15;51.03
40372;BME280;28564;53.346;-6.554;2023-04-06T00:44:20;100606.14;;;11.65;51.14
40372;BME280;28564;53.346;-6.554;2023-04-06T00:46:48;100604.39;;;11.91;51.04
40372;BME280;28564;53.346;-6.554;2023-04-06T00:49:15;100610.47;;;11.91;51.07
40372;BME280;28564;53.346;-6.554;2023-04-06T00:51:43;100608.30;;;11.90;50.77
40372;BME280;28564;53.346;-6.554;2023-04-06T00:54:10;100610.78;;;12.11;50.37
40372;BME280;28564;53.346;-6.554;2023-04-06T00:56:37;100612.25;;;12.08;50.06
40372;BME280;28564;53.346;-6.554;2023-04-06T00:59:04;100614.90;;;12.05;49.92
40372;BME280;28564;53.346;-6.554;2023-04-06T01:01:32;100615.72;;;12.02;49.55
40372;BME280;28564;53.346;-6.554;2023-04-06T01:03:59;100619.02;;;11.47;49.46
40372;BME280;28564;53.346;-6.554;2023-04-06T01:06:26;100617.79;;;11.67;49.34
40372;BME280;28564;53.346;-6.554;2023-04-06T01:08:53;100613.62;;;11.60;48.92
40372;BME280;28564;53.346;-6.554;2023-04-06T01:11:21;100610.81;;;11.76;49.31
40372;BME280;28564;53.346;-6.554;2023-04-06T01:13:49;100610.62;;;11.72;49.43
40372;BME280;28564;53.346;-6.554;2023-04-06T01:16:16;100613.20;;;11.70;49.24
40372;BME280;28564;53.346;-6.554;2023-04-06T01:18:43;100615.80;;;11.70;49.36
40372;BME280;28564;53.346;-6.554;2023-04-06T01:21:10;100611.89;;;11.68;49.45
40372;BME280;28564;53.346;-6.554;2023-04-06T01:23:37;100611.97;;;11.67;49.10
40372;BME280;28564;53.346;-6.554;2023-04-06T01:26:04;100615.64;;;11.67;48.66
40372;BME280;28564;53.346;-6.554;2023-04-06T01:28:32;100613.13;;;11.62;48.66
40372;BME280;28564;53.346;-6.554;2023-04-06T01:30:59;100612.71;;;11.36;48.85
40372;BME280;28564;53.346;-6.554;2023-04-06T01:33:26;100610.71;;;11.59;48.83
40372;BME280;28564;53.346;-6.554;2023-04-06T01:35:53;100606.62;;;11.59;48.93
40372;BME280;28564;53.346;-6.554;2023-04-06T01:38:21;100608.61;;;11.59;48.94
40372;BME280;28564;53.346;-6.554;2023-04-06T01:40:48;100605.56;;;11.60;49.09
40372;BME280;28564;53.346;-6.554;2023-04-06T01:43:15;100597.70;;;11.62;48.58
40372;BME280;28564;53.346;-6.554;2023-04-06T01:45:42;100595.50;;;11.53;48.73
40372;BME280;28564;53.346;-6.554;2023-04-06T01:48:10;100592.26;;;11.46;48.95
40372;BME280;28564;53.346;-6.554;2023-04-06T01:50:37;100589.94;;;11.42;49.02
40372;BME280;28564;53.346;-6.554;2023-04-06T01:53:04;100588.27;;;11.42;49.26
40372;BME280;28564;53.346;-6.554;2023-04-06T01:55:31;100585.63;;;11.63;48.86
40372;BME280;28564;53.346;-6.554;2023-04-06T01:57:59;100584.83;;;11.38;48.90
40372;BME280;28564;53.346;-6.554;2023-04-06T02:00:26;100583.79;;;11.35;48.99
40372;BME280;28564;53.346;-6.554;2023-04-06T02:02:53;100579.03;;;11.33;49.14
40372;BME280;28564;53.346;-6.554;2023-04-06T02:05:20;100581.24;;;11.33;49.11
40372;BME280;28564;53.346;-6.554;2023-04-06T02:07:48;100581.02;;;11.32;49.20
40372;BME280;28564;53.346;-6.554;2023-04-06T02:10:15;100576.84;;;11.33;49.41
40372;BME280;28564;53.346;-6.554;2023-04-06T02:12:42;100576.88;;;11.35;49.39
40372;BME280;28564;53.346;-6.554;2023-04-06T02:15:10;100573.40;;;11.37;49.54
40372;BME280;28564;53.346;-6.554;2023-04-06T02:17:37;100570.81;;;11.41;49.59
40372;BME280;28564;53.346;-6.554;2023-04-06T02:20:06;100569.93;;;11.44;49.41
40372;BME280;28564;53.346;-6.554;2023-04-06T02:22:33;100568.19;;;11.64;49.37
40372;BME280;28564;53.346;-6.554;2023-04-06T02:25:01;100568.70;;;11.42;49.58
40372;BME280;28564;53.346;-6.554;2023-04-06T02:27:28;100568.89;;;11.42;49.66
40372;BME280;28564;53.346;-6.554;2023-04-06T02:29:55;100569.03;;;11.41;49.55
40372;BME280;28564;53.346;-6.554;2023-04-06T02:32:23;100566.48;;;11.39;49.46
40372;BME280;28564;53.346;-6.554;2023-04-06T02:34:50;100568.36;;;11.37;49.50
40372;BME280;28564;53.346;-6.554;2023-04-06T02:37:17;100570.08;;;11.37;49.51
40372;BME280;28564;53.346;-6.554;2023-04-06T02:39:45;100573.05;;;11.34;49.24
40372;BME280;28564;53.346;-6.554;2023-04-06T02:42:12;100579.91;;;11.31;49.33
40372;BME280;28564;53.346;-6.554;2023-04-06T02:44:39;100582.45;;;11.29;49.50
40372;BME280;28564;53.346;-6.554;2023-04-06T02:47:07;100580.04;;;11.28;49.54
40372;BME280;28564;53.346;-6.554;2023-04-06T02:49:34;100582.29;;;11.27;49.59
40372;BME280;28564;53.346;-6.554;2023-04-06T02:52:01;100587.82;;;11.25;49.67
40372;BME280;28564;53.346;-6.554;2023-04-06T02:54:28;100588.59;;;11.48;49.69
40372;BME280;28564;53.346;-6.554;2023-04-06T02:56:55;100590.03;;;11.30;49.74
40372;BME280;28564;53.346;-6.554;2023-04-06T02:59:23;100586.14;;;11.37;49.68
40372;BME280;28564;53.346;-6.554;2023-04-06T03:01:50;100587.48;;;11.39;49.87
40372;BME280;28564;53.346;-6.554;2023-04-06T03:04:17;100588.77;;;11.37;49.75
40372;BME280;28564;53.346;-6.554;2023-04-06T03:06:44;100586.22;;;11.36;49.78
40372;BME280;28564;53.346;-6.554;2023-04-06T03:09:12;100588.96;;;11.36;49.75
40372;BME280;28564;53.346;-6.554;2023-04-06T03:11:40;100586.74;;;11.11;49.57
40372;BME280;28564;53.346;-6.554;2023-04-06T03:14:07;100591.14;;;11.26;49.65
40372;BME280;28564;53.346;-6.554;2023-04-06T03:16:34;100595.90;;;11.43;49.92
40372;BME280;28564;53.346;-6.554;2023-04-06T03:19:01;100594.54;;;11.42;49.85
40372;BME280;28564;53.346;-6.554;2023-04-06T03:21:28;100599.06;;;11.40;50.03
40372;BME280;28564;53.346;-6.554;2023-04-06T03:23:56;100601.05;;;11.18;49.86
40372;BME280;28564;53.346;-6.554;2023-04-06T03:26:23;100602.37;;;11.16;49.93
40372;BME280;28564;53.346;-6.554;2023-04-06T03:28:50;100603.20;;;11.33;50.09
40372;BME280;28564;53.346;-6.554;2023-04-06T03:31:17;100607.91;;;11.02;50.53
40372;BME280;28564;53.346;-6.554;2023-04-06T03:33:44;100601.82;;;11.10;51.04
40372;BME280;28564;53.346;-6.554;2023-04-06T03:36:11;100596.82;;;10.72;51.61
40372;BME280;28564;53.346;-6.554;2023-04-06T03:38:39;100591.43;;;10.86;51.96
40372;BME280;28564;53.346;-6.554;2023-04-06T03:41:06;100600.19;;;10.85;52.18
40372;BME280;28564;53.346;-6.554;2023-04-06T03:43:33;100596.67;;;11.09;52.19
40372;BME280;28564;53.346;-6.554;2023-04-06T03:46:00;100595.12;;;10.82;52.47
40372;BME280;28564;53.346;-6.554;2023-04-06T03:48:28;100586.80;;;10.86;52.54
40372;BME280;28564;53.346;-6.554;2023-04-06T03:50:55;100582.33;;;10.90;52.58
40372;BME280;28564;53.346;-6.554;2023-04-06T03:53:22;100584.06;;;10.98;52.81
40372;BME280;28564;53.346;-6.554;2023-04-06T03:55:50;100580.88;;;11.33;52.86
40372;BME280;28564;53.346;-6.554;2023-04-06T03:58:17;100584.40;;;10.96;52.93
40372;BME280;28564;53.346;-6.554;2023-04-06T04:00:44;100589.56;;;11.01;52.70
40372;BME280;28564;53.346;-6.554;2023-04-06T04:03:11;100593.03;;;11.02;52.35
40372;BME280;28564;53.346;-6.554;2023-04-06T04:05:39;100589.73;;;10.93;52.16
40372;BME280;28564;53.346;-6.554;2023-04-06T04:08:06;100585.56;;;11.12;52.55
40372;BME280;28564;53.346;-6.554;2023-04-06T04:10:33;100587.17;;;11.39;52.62
40372;BME280;28564;53.346;-6.554;2023-04-06T04:13:00;100587.63;;;11.10;52.73
40372;BME280;28564;53.346;-6.554;2023-04-06T04:15:28;100586.03;;;10.89;52.87
40372;BME280;28564;53.346;-6.554;2023-04-06T04:17:55;100589.34;;;10.96;52.87
40372;BME280;28564;53.346;-6.554;2023-04-06T04:20:22;100591.88;;;10.96;52.70
40372;BME280;28564;53.346;-6.554;2023-04-06T04:22:49;100591.53;;;10.93;52.86
40372;BME280;28564;53.346;-6.554;2023-04-06T04:25:17;100595.75;;;10.96;52.86
40372;BME280;28564;53.346;-6.554;2023-04-06T04:27:44;100599.01;;;10.98;52.93
40372;BME280;28564;53.346;-6.554;2023-04-06T04:30:11;100600.35;;;11.00;52.83
40372;BME280;28564;53.346;-6.554;2023-04-06T04:32:38;100603.10;;;11.01;52.78
40372;BME280;28564;53.346;-6.554;2023-04-06T04:35:06;100601.74;;;10.95;52.57
40372;BME280;28564;53.346;-6.554;2023-04-06T04:37:34;100600.10;;;11.13;52.93
40372;BME280;28564;53.346;-6.554;2023-04-06T04:40:01;100599.91;;;10.92;52.96
40372;BME280;28564;53.346;-6.554;2023-04-06T04:42:28;100600.32;;;10.92;52.87
40372;BME280;28564;53.346;-6.554;2023-04-06T04:44:56;100607.75;;;10.90;52.89
40372;BME280;28564;53.346;-6.554;2023-04-06T04:47:23;100607.61;;;10.89;52.95
40372;BME280;28564;53.346;-6.554;2023-04-06T04:49:50;100608.02;;;10.89;52.93
40372;BME280;28564;53.346;-6.554;2023-04-06T04:52:17;100608.88;;;11.09;52.69
40372;BME280;28564;53.346;-6.554;2023-04-06T04:54:44;100613.93;;;11.03;52.73
40372;BME280;28564;53.346;-6.554;2023-04-06T04:57:12;100614.42;;;10.75;52.75
40372;BME280;28564;53.346;-6.554;2023-04-06T04:59:39;100613.39;;;10.96;52.76
40372;BME280;28564;53.346;-6.554;2023-04-06T05:02:07;100615.08;;;10.68;52.91
40372;BME280;28564;53.346;-6.554;2023-04-06T05:04:35;100613.84;;;11.13;52.93
40372;BME280;28564;53.346;-6.554;2023-04-06T05:07:04;100614.86;;;10.83;53.06
40372;BME280;28564;53.346;-6.554;2023-04-06T05:09:31;100617.95;;;10.80;53.05
40372;BME280;28564;53.346;-6.554;2023-04-06T05:11:59;100616.99;;;10.55;53.20
40372;BME280;28564;53.346;-6.554;2023-04-06T05:14:26;100621.92;;;10.51;53.26
40372;BME280;28564;53.346;-6.554;2023-04-06T05:16:54;100626.29;;;10.54;53.36
40372;BME280;28564;53.346;-6.554;2023-04-06T05:19:21;100629.44;;;10.78;53.42
40372;BME280;28564;53.346;-6.554;2023-04-06T05:21:48;100631.79;;;10.76;53.18
40372;BME280;28564;53.346;-6.554;2023-04-06T05:24:16;100635.09;;;10.96;53.19
40372;BME280;28564;53.346;-6.554;2023-04-06T05:26:43;100636.60;;;10.61;53.36
40372;BME280;28564;53.346;-6.554;2023-04-06T05:29:10;100633.85;;;10.54;53.53
40372;BME280;28564;53.346;-6.554;2023-04-06T05:31:38;100634.09;;;10.78;53.80
40372;BME280;28564;53.346;-6.554;2023-04-06T05:34:05;100630.69;;;10.48;53.91
40372;BME280;28564;53.346;-6.554;2023-04-06T05:36:32;100628.93;;;10.45;54.19
40372;BME280;28564;53.346;-6.554;2023-04-06T05:38:59;100629.48;;;10.49;54.36
40372;BME280;28564;53.346;-6.554;2023-04-06T05:41:27;100629.46;;;10.80;54.35
40372;BME280;28564;53.346;-6.554;2023-04-06T05:43:54;100636.18;;;10.55;54.29
40372;BME280;28564;53.346;-6.554;2023-04-06T05:46:21;100641.31;;;10.57;54.18
40372;BME280;28564;53.346;-6.554;2023-04-06T05:48:48;100646.76;;;10.55;53.94
40372;BME280;28564;53.346;-6.554;2023-04-06T05:51:16;100649.82;;;10.50;53.93
40372;BME280;28564;53.346;-6.554;2023-04-06T05:53:43;100651.28;;;10.21;54.14
40372;BME280;28564;53.346;-6.554;2023-04-06T05:56:10;100655.00;;;10.39;54.27
40372;BME280;28564;53.346;-6.554;2023-04-06T05:58:38;100662.19;;;10.66;54.28
40372;BME280;28564;53.346;-6.554;2023-04-06T06:01:05;100667.88;;;10.62;54.37
40372;BME280;28564;53.346;-6.554;2023-04-06T06:03:32;100666.68;;;10.61;54.39
40372;BME280;28564;53.346;-6.554;2023-04-06T06:06:00;100666.65;;;10.56;54.50
40372;BME280;28564;53.346;-6.554;2023-04-06T06:08:28;100667.55;;;10.55;54.67
40372;BME280;28564;53.346;-6.554;2023-04-06T06:10:55;100668.73;;;10.59;54.79
40372;BME280;28564;53.346;-6.554;2023-04-06T06:13:23;100671.96;;;10.61;54.69
40372;BME280;28564;53.346;-6.554;2023-04-06T06:15:50;100669.82;;;10.35;54.42
40372;BME280;28564;53.346;-6.554;2023-04-06T06:18:18;100668.11;;;10.32;54.45
40372;BME280;28564;53.346;-6.554;2023-04-06T06:20:45;100670.08;;;10.29;54.51
40372;BME280;28564;53.346;-6.554;2023-04-06T06:23:12;100671.16;;;10.58;54.54
40372;BME280;28564;53.346;-6.554;2023-04-06T06:25:39;100672.35;;;10.60;54.56
40372;BME280;28564;53.346;-6.554;2023-04-06T06:28:07;100675.00;;;10.62;54.60
40372;BME280;28564;53.346;-6.554;2023-04-06T06:30:34;100678.65;;;10.68;54.28
40372;BME280;28564;53.346;-6.554;2023-04-06T06:33:01;100681.14;;;10.70;54.17
40372;BME280;28564;53.346;-6.554;2023-04-06T06:35:29;100685.86;;;10.44;53.95
40372;BME280;28564;53.346;-6.554;2023-04-06T06:37:56;100685.65;;;10.69;54.21
40372;BME280;28564;53.346;-6.554;2023-04-06T06:40:23;100688.30;;;10.71;54.07
40372;BME280;28564;53.346;-6.554;2023-04-06T06:42:50;100689.63;;;10.69;54.12
40372;BME280;28564;53.346;-6.554;2023-04-06T06:45:18;100689.78;;;10.45;54.08
40372;BME280;28564;53.346;-6.554;2023-04-06T06:47:46;100693.12;;;10.72;53.84
40372;BME280;28564;53.346;-6.554;2023-04-06T06:50:13;100697.68;;;10.50;53.86
40372;BME280;28564;53.346;-6.554;2023-04-06T06:52:40;100698.03;;;10.54;53.86
40372;BME280;28564;53.346;-6.554;2023-04-06T06:55:09;100700.09;;;10.81;53.88
40372;BME280;28564;53.346;-6.554;2023-04-06T06:57:37;100706.15;;;10.77;54.09
40372;BME280;28564;53.346;-6.554;2023-04-06T07:00:05;100705.59;;;10.39;54.34
40372;BME280;28564;53.346;-6.554;2023-04-06T07:02:33;100707.28;;;10.56;54.76
40372;BME280;28564;53.346;-6.554;2023-04-06T07:05:01;100712.86;;;10.23;55.20
40372;BME280;28564;53.346;-6.554;2023-04-06T07:07:29;100711.25;;;9.96;55.36
40372;BME280;28564;53.346;-6.554;2023-04-06T07:09:55;100718.80;;;10.44;55.55
40372;BME280;28564;53.346;-6.554;2023-04-06T07:12:23;100713.81;;;10.46;55.44
40372;BME280;28564;53.346;-6.554;2023-04-06T07:14:50;100714.76;;;10.28;55.75
40372;BME280;28564;53.346;-6.554;2023-04-06T07:17:18;100715.89;;;10.37;55.62
40372;BME280;28564;53.346;-6.554;2023-04-06T07:19:45;100716.17;;;10.51;55.39
40372;BME280;28564;53.346;-6.554;2023-04-06T07:22:12;100723.80;;;10.57;55.47
40372;BME280;28564;53.346;-6.554;2023-04-06T07:24:39;100725.28;;;10.68;55.52
40372;BME280;28564;53.346;-6.554;2023-04-06T07:27:06;100723.90;;;10.71;55.13
40372;BME280;28564;53.346;-6.554;2023-04-06T07:29:34;100729.50;;;10.70;55.16
40372;BME280;28564;53.346;-6.554;2023-04-06T07:32:01;100729.69;;;10.43;55.54
40372;BME280;28564;53.346;-6.554;2023-04-06T07:34:28;100730.71;;;10.65;55.33
40372;BME280;28564;53.346;-6.554;2023-04-06T07:36:55;100734.57;;;10.84;55.54
40372;BME280;28564;53.346;-6.554;2023-04-06T07:39:23;100734.84;;;10.83;55.33
40372;BME280;28564;53.346;-6.554;2023-04-06T07:41:50;100739.76;;;10.82;55.35
40372;BME280;28564;53.346;-6.554;2023-04-06T07:44:17;100742.46;;;10.55;55.70
40372;BME280;28564;53.346;-6.554;2023-04-06T07:46:45;100738.02;;;10.62;55.73
40372;BME280;28564;53.346;-6.554;2023-04-06T07:49:12;100738.99;;;10.98;55.54
40372;BME280;28564;53.346;-6.554;2023-04-06T07:51:39;100743.06;;;11.04;55.29
40372;BME280;28564;53.346;-6.554;2023-04-06T07:54:06;100739.23;;;10.52;55.24
40372;BME280;28564;53.346;-6.554;2023-04-06T07:56:34;100738.44;;;10.83;55.38
40372;BME280;28564;53.346;-6.554;2023-04-06T07:59:01;100740.81;;;10.90;55.30
40372;BME280;28564;53.346;-6.554;2023-04-06T08:01:28;100741.47;;;10.78;55.38
40372;BME280;28564;53.346;-6.554;2023-04-06T08:03:56;100738.81;;;11.08;54.89
40372;BME280;28564;53.346;-6.554;2023-04-06T08:06:23;100741.95;;;11.07;54.62
40372;BME280;28564;53.346;-6.554;2023-04-06T08:08:50;100744.75;;;10.93;54.64
40372;BME280;28564;53.346;-6.554;2023-04-06T08:11:18;100749.13;;;11.10;54.50
40372;BME280;28564;53.346;-6.554;2023-04-06T08:13:45;100752.65;;;11.29;54.47
40372;BME280;28564;53.346;-6.554;2023-04-06T08:16:12;100755.07;;;11.39;54.32
40372;BME280;28564;53.346;-6.554;2023-04-06T08:18:40;100757.03;;;11.57;53.61
40372;BME280;28564;53.346;-6.554;2023-04-06T08:21:07;100764.19;;;11.64;53.23
40372;BME280;28564;53.346;-6.554;2023-04-06T08:23:34;100762.22;;;11.47;53.08
40372;BME280;28564;53.346;-6.554;2023-04-06T08:26:02;100765.82;;;11.30;53.32
40372;BME280;28564;53.346;-6.554;2023-04-06T08:28:29;100765.07;;;11.68;53.36
40372;BME280;28564;53.346;-6.554;2023-04-06T08:30:56;100768.59;;;11.47;53.21
40372;BME280;28564;53.346;-6.554;2023-04-06T08:33:23;100772.75;;;11.58;53.10
40372;BME280;28564;53.346;-6.554;2023-04-06T08:35:50;100775.65;;;11.94;52.72
40372;BME280;28564;53.346;-6.554;2023-04-06T08:38:18;100774.78;;;12.23;51.88
40372;BME280;28564;53.346;-6.554;2023-04-06T08:40:45;100779.84;;;12.31;51.92
40372;BME280;28564;53.346;-6.554;2023-04-06T08:43:13;100783.53;;;11.93;52.33
40372;BME280;28564;53.346;-6.554;2023-04-06T08:45:41;100784.93;;;12.13;52.28
40372;BME280;28564;53.346;-6.554;2023-04-06T08:48:09;100791.19;;;12.25;51.83
40372;BME280;28564;53.346;-6.554;2023-04-06T08:50:38;100799.97;;;12.26;50.40
40372;BME280;28564;53.346;-6.554;2023-04-06T08:53:06;100793.35;;;12.68;50.11
40372;BME280;28564;53.346;-6.554;2023-04-06T08:55:33;100799.03;;;12.28;49.41
40372;BME280;28564;53.346;-6.554;2023-04-06T08:58:02;100799.50;;;12.27;50.23
40372;BME280;28564;53.346;-6.554;2023-04-06T09:00:31;100806.77;;;12.20;50.24
40372;BME280;28564;53.346;-6.554;2023-04-06T09:02:58;100809.14;;;12.56;49.74
40372;BME280;28564;53.346;-6.554;2023-04-06T09:05:27;100814.36;;;12.56;48.88
40372;BME280;28564;53.346;-6.554;2023-04-06T09:07:54;100815.68;;;12.49;48.43
40372;BME280;28564;53.346;-6.554;2023-04-06T09:10:22;100817.53;;;12.56;49.32
40372;BME280;28564;53.346;-6.554;2023-04-06T09:12:49;100816.75;;;12.75;48.90
40372;BME280;28564;53.346;-6.554;2023-04-06T09:15:20;100818.75;;;12.63;48.39
40372;BME280;28564;53.346;-6.554;2023-04-06T09:17:48;100819.71;;;12.66;48.37
40372;BME280;28564;53.346;-6.554;2023-04-06T09:20:23;100824.43;;;12.69;47.96
40372;BME280;28564;53.346;-6.554;2023-04-06T09:22:50;100832.59;;;12.39;47.67
40372;BME280;28564;53.346;-6.554;2023-04-06T09:25:19;100832.06;;;11.99;47.34
40372;BME280;28564;53.346;-6.554;2023-04-06T09:27:47;100837.21;;;11.68;47.80
40372;BME280;28564;53.346;-6.554;2023-04-06T09:30:15;100838.27;;;11.50;47.91
40372;BME280;28564;53.346;-6.554;2023-04-06T09:32:47;100841.50;;;11.98;48.94
40372;BME280;28564;53.346;-6.554;2023-04-06T09:35:15;100848.32;;;11.54;49.15
40372;BME280;28564;53.346;-6.554;2023-04-06T09:37:44;100851.36;;;12.08;48.88
40372;BME280;28564;53.346;-6.554;2023-04-06T09:40:12;100858.86;;;12.07;48.15
40372;BME280;28564;53.346;-6.554;2023-04-06T09:42:41;100858.51;;;12.11;48.03
40372;BME280;28564;53.346;-6.554;2023-04-06T09:45:09;100860.24;;;12.13;48.20
40372;BME280;28564;53.346;-6.554;2023-04-06T09:47:37;100858.60;;;12.19;47.84
40372;BME280;28564;53.346;-6.554;2023-04-06T09:50:05;100858.20;;;12.53;46.67
40372;BME280;28564;53.346;-6.554;2023-04-06T09:52:38;100859.44;;;12.79;47.53
40372;BME280;28564;53.346;-6.554;2023-04-06T09:55:08;100863.95;;;13.01;47.06
40372;BME280;28564;53.346;-6.554;2023-04-06T09:57:44;100862.30;;;13.33;45.45
40372;BME280;28564;53.346;-6.554;2023-04-06T10:00:14;100860.87;;;13.37;44.89
40372;BME280;28564;53.346;-6.554;2023-04-06T10:02:50;100863.48;;;13.03;44.92
40372;BME280;28564;53.346;-6.554;2023-04-06T10:05:25;100867.38;;;13.05;43.93
40372;BME280;28564;53.346;-6.554;2023-04-06T10:07:57;100875.20;;;13.00;43.77
40372;BME280;28564;53.346;-6.554;2023-04-06T10:10:27;100875.61;;;12.74;44.00
40372;BME280;28564;53.346;-6.554;2023-04-06T10:12:55;100884.38;;;12.56;44.38
40372;BME280;28564;53.346;-6.554;2023-04-06T10:15:23;100877.50;;;12.76;44.30
40372;BME280;28564;53.346;-6.554;2023-04-06T10:17:51;100884.40;;;12.37;44.90
40372;BME280;28564;53.346;-6.554;2023-04-06T10:20:23;100888.74;;;12.95;44.09
40372;BME280;28564;53.346;-6.554;2023-04-06T10:22:55;100891.27;;;13.10;43.32
40372;BME280;28564;53.346;-6.554;2023-04-06T10:25:31;100883.51;;;13.58;41.91
40372;BME280;28564;53.346;-6.554;2023-04-06T10:28:00;100879.60;;;13.66;42.24
40372;BME280;28564;53.346;-6.554;2023-04-06T10:30:28;100885.72;;;13.46;42.58
40372;BME280;28564;53.346;-6.554;2023-04-06T10:32:56;100893.01;;;13.58;42.31
40372;BME280;28564;53.346;-6.554;2023-04-06T10:35:23;100897.46;;;13.27;42.34
40372;BME280;28564;53.346;-6.554;2023-04-06T10:37:52;100902.87;;;13.01;41.93
40372;BME280;28564;53.346;-6.554;2023-04-06T10:40:22;100905.19;;;13.15;41.56
40372;BME280;28564;53.346;-6.554;2023-04-06T10:42:49;100904.48;;;12.98;41.56
40372;BME280;28564;53.346;-6.554;2023-04-06T10:45:21;100899.30;;;13.37;42.18
40372;BME280;28564;53.346;-6.554;2023-04-06T10:47:48;100899.68;;;13.18;42.01
40372;BME280;28564;53.346;-6.554;2023-04-06T10:50:16;100897.16;;;13.76;41.48
40372;BME280;28564;53.346;-6.554;2023-04-06T10:52:45;100908.01;;;14.16;41.27
40372;BME280;28564;53.346;-6.554;2023-04-06T10:55:13;100910.24;;;13.91;41.13
40372;BME280;28564;53.346;-6.554;2023-04-06T10:57:41;100912.77;;;14.38;40.84
40372;BME280;28564;53.346;-6.554;2023-04-06T11:00:12;100914.00;;;14.04;40.61
40372;BME280;28564;53.346;-6.554;2023-04-06T11:02:40;100915.92;;;13.85;41.19
40372;BME280;28564;53.346;-6.554;2023-04-06T11:05:08;100915.07;;;14.29;40.53
40372;BME280;28564;53.346;-6.554;2023-04-06T11:07:35;100918.18;;;14.39;39.20
40372;BME280;28564;53.346;-6.554;2023-04-06T11:10:02;100916.33;;;14.44;39.69
40372;BME280;28564;53.346;-6.554;2023-04-06T11:12:30;100919.88;;;14.58;38.72
40372;BME280;28564;53.346;-6.554;2023-04-06T11:14:59;100922.46;;;14.14;38.43
40372;BME280;28564;53.346;-6.554;2023-04-06T11:17:27;100924.35;;;14.08;38.93
40372;BME280;28564;53.346;-6.554;2023-04-06T11:19:54;100916.29;;;14.36;38.47
40372;BME280;28564;53.346;-6.554;2023-04-06T11:22:22;100918.34;;;14.25;38.60
40372;BME280;28564;53.346;-6.554;2023-04-06T11:24:50;100921.22;;;14.65;38.08
40372;BME280;28564;53.346;-6.554;2023-04-06T11:27:19;100918.75;;;14.88;38.66
40372;BME280;28564;53.346;-6.554;2023-04-06T11:29:46;100925.21;;;15.02;38.68
40372;BME280;28564;53.346;-6.554;2023-04-06T11:32:20;100927.95;;;15.00;37.23
40372;BME280;28564;53.346;-6.554;2023-04-06T11:34:48;100929.92;;;14.89;36.84
40372;BME280;28564;53.346;-6.554;2023-04-06T11:37:16;100929.69;;;14.58;37.50
40372;BME280;28564;53.346;-6.554;2023-04-06T11:39:47;100933.45;;;14.41;38.12
40372;BME280;28564;53.346;-6.554;2023-04-06T11:42:21;100930.60;;;14.61;38.58
40372;BME280;28564;53.346;-6.554;2023-04-06T11:44:51;100941.03;;;14.67;38.43
40372;BME280;28564;53.346;-6.554;2023-04-06T11:47:19;100938.98;;;15.15;37.88
40372;BME280;28564;53.346;-6.554;2023-04-06T11:49:47;100941.52;;;15.16;37.05
40372;BME280;28564;53.346;-6.554;2023-04-06T11:52:16;100950.49;;;14.81;36.44
40372;BME280;28564;53.346;-6.554;2023-04-06T11:54:44;100946.90;;;14.82;36.26
40372;BME280;28564;53.346;-6.554;2023-04-06T11:57:12;100946.95;;;14.48;37.22
40372;BME280;28564;53.346;-6.554;2023-04-06T11:59:38;100951.56;;;14.36;37.67
40372;BME280;28564;53.346;-6.554;2023-04-06T12:02:06;100946.52;;;14.29;37.83
40372;BME280;28564;53.346;-6.554;2023-04-06T12:04:33;100946.86;;;14.56;37.95
40372;BME280;28564;53.346;-6.554;2023-04-06T12:07:00;100945.12;;;14.72;38.65
40372;BME280;28564;53.346;-6.554;2023-04-06T12:09:28;100948.55;;;14.73;36.34
40372;BME280;28564;53.346;-6.554;2023-04-06T12:11:55;100943.37;;;14.96;36.02
40372;BME280;28564;53.346;-6.554;2023-04-06T12:14:22;100936.25;;;15.20;36.10
40372;BME280;28564;53.346;-6.554;2023-04-06T12:16:50;100937.46;;;15.39;36.33
40372;BME280;28564;53.346;-6.554;2023-04-06T12:19:17;100943.08;;;15.50;35.77
40372;BME280;28564;53.346;-6.554;2023-04-06T12:21:44;100941.56;;;15.06;35.59
40372;BME280;28564;53.346;-6.554;2023-04-06T12:24:12;100941.51;;;15.34;35.35
40372;BME280;28564;53.346;-6.554;2023-04-06T12:26:39;100944.96;;;15.39;35.15
40372;BME280;28564;53.346;-6.554;2023-04-06T12:29:06;100944.88;;;15.24;34.91
40372;BME280;28564;53.346;-6.554;2023-04-06T12:31:35;100946.14;;;15.38;34.87
40372;BME280;28564;53.346;-6.554;2023-04-06T12:34:02;100947.03;;;15.88;35.32
40372;BME280;28564;53.346;-6.554;2023-04-06T12:36:30;100950.76;;;15.90;35.27
40372;BME280;28564;53.346;-6.554;2023-04-06T12:38:57;100944.68;;;16.05;34.80
40372;BME280;28564;53.346;-6.554;2023-04-06T12:41:24;100947.78;;;16.59;34.73